Time;durP1;ratioP1;P1;durP2;ratioP2;P2;SDS_P1;SDS_P2;PMS_P1;PMS_P2;Temp;Humidity;BMP_temperature;BMP_pressure;BME280_temperature;BME280_humidity;BME280_pressure;Samples;Min_cycle;Max_cycle;Signal;HPM_P1;HPM_P2
2022/11/18 00:01:33;;;;;;;5.53;5.23;;;;;;;8.53;82.17;99242.97;5113794;28;20185;-71
2022/11/18 00:04:00;;;;;;;5.07;4.87;;;;;;;8.56;82.32;99241.84;5113573;28;20292;-71
2022/11/18 00:06:28;;;;;;;5.80;4.27;;;;;;;8.58;81.99;99237.22;5113744;28;20599;-71
2022/11/18 00:08:56;;;;;;;4.80;4.40;;;;;;;8.56;82.17;99249.84;5113703;28;20265;-71
2022/11/18 00:14:19;;;;;;;3.53;3.40;;;;;;;8.60;81.83;99254.78;5113449;28;20213;-71
2022/11/18 00:16:48;;;;;;;3.80;3.47;;;;;;;8.54;82.53;99260.66;5113609;28;20569;-71
2022/11/18 00:19:14;;;;;;;4.27;3.97;;;;;;;8.54;82.40;99267.81;5113356;28;20196;-71
2022/11/18 00:21:41;;;;;;;4.20;3.90;;;;;;;8.61;82.25;99261.81;5113561;28;20189;-71
2022/11/18 00:24:08;;;;;;;7.57;4.37;;;;;;;8.61;81.91;99267.16;5113249;28;20288;-71
2022/11/18 00:26:35;;;;;;;4.93;4.73;;;;;;;8.57;82.13;99267.53;5113309;28;20177;-71
2022/11/18 00:29:03;;;;;;;3.83;3.73;;;;;;;8.55;81.78;99266.84;5095273;28;20185;-71
2022/11/18 00:31:30;;;;;;;4.53;4.43;;;;;;;8.55;82.21;99267.69;5113293;28;20181;-71
2022/11/18 00:33:56;;;;;;;4.80;4.50;;;;;;;8.56;81.96;99264.03;5113158;28;20297;-71
2022/11/18 00:36:22;;;;;;;4.37;4.27;;;;;;;8.46;81.89;99263.16;5113848;28;20303;-72
2022/11/18 00:38:49;;;;;;;5.23;4.67;;;;;;;8.47;81.91;99267.50;5098754;28;20199;-72
2022/11/18 00:41:15;;;;;;;5.63;5.13;;;;;;;8.49;81.86;99279.72;5116990;28;20189;-72
2022/11/18 00:43:41;;;;;;;10.33;5.13;;;;;;;8.45;82.33;99269.44;5116914;28;20791;-71
2022/11/18 00:46:10;;;;;;;4.97;4.67;;;;;;;8.45;81.98;99277.47;5116932;28;20268;-71
2022/11/18 00:48:37;;;;;;;4.77;4.67;;;;;;;8.43;82.43;99271.44;5117160;28;20181;-71
2022/11/18 00:51:12;;;;;;;4.80;4.50;;;;;;;8.40;82.29;99267.19;5117371;28;20283;-71
2022/11/18 00:53:38;;;;;;;5.27;5.17;;;;;;;8.45;82.09;99267.66;5116753;28;20200;-71
2022/11/18 00:56:06;;;;;;;4.87;4.67;;;;;;;8.43;82.39;99274.09;5116669;28;20201;-71
2022/11/18 00:58:33;;;;;;;5.97;4.37;;;;;;;8.41;82.65;99274.22;5116960;28;20185;-71
2022/11/18 01:00:59;;;;;;;5.07;4.67;;;;;;;8.40;82.28;99280.53;5098341;28;20188;-71
2022/11/18 01:03:27;;;;;;;4.43;4.30;;;;;;;8.36;82.79;99280.91;5116781;28;20208;-71
2022/11/18 01:05:53;;;;;;;6.23;3.80;;;;;;;8.29;82.81;99276.09;5117090;28;20177;-71
2022/11/18 01:08:20;;;;;;;4.83;4.63;;;;;;;8.29;83.22;99280.59;5116469;28;20186;-71
2022/11/18 01:10:48;;;;;;;8.00;4.07;;;;;;;8.31;82.75;99279.47;5116458;28;20181;-71
2022/11/18 01:13:20;;;;;;;4.47;3.97;;;;;;;8.36;83.06;99288.91;5116627;28;20613;-71
2022/11/18 01:15:50;;;;;;;4.03;3.93;;;;;;;8.40;82.63;99299.19;5116308;28;20288;-71
2022/11/18 01:18:18;;;;;;;4.33;4.13;;;;;;;8.36;83.60;99294.25;5116884;28;20178;-71
2022/11/18 01:20:45;;;;;;;4.90;4.37;;;;;;;8.29;83.53;99291.25;5116329;28;20189;-71
2022/11/18 01:23:13;;;;;;;5.23;4.40;;;;;;;8.33;83.29;99295.34;5116459;28;20603;-71
2022/11/18 01:25:41;;;;;;;7.10;4.20;;;;;;;8.36;83.48;99303.09;5116430;28;20264;-71
2022/11/18 01:28:07;;;;;;;3.87;3.67;;;;;;;8.30;84.00;99298.28;5116659;28;20204;-71
2022/11/18 01:30:36;;;;;;;4.23;4.03;;;;;;;8.33;83.49;99308.66;5116317;28;20285;-71
2022/11/18 01:33:04;;;;;;;4.30;4.20;;;;;;;8.35;83.92;99304.06;5116108;28;20557;-71
2022/11/18 01:35:38;;;;;;;9.50;3.50;;;;;;;8.37;83.81;99303.94;5115862;28;20205;-71
2022/11/18 01:38:05;;;;;;;3.83;3.53;;;;;;;8.36;83.78;99310.25;5116177;28;20590;-71
2022/11/18 01:40:32;;;;;;;3.17;3.07;;;;;;;8.33;83.59;99308.66;5116173;28;20714;-72
2022/11/18 01:42:59;;;;;;;3.70;3.70;;;;;;;8.32;84.20;99321.16;5115755;28;20207;-72
2022/11/18 01:45:33;;;;;;;3.60;3.60;;;;;;;8.32;84.25;99317.66;5115790;28;20249;-72
2022/11/18 01:48:15;;;;;;;3.67;3.57;;;;;;;8.32;84.43;99317.66;5115473;28;20217;-72
2022/11/18 01:50:50;;;;;;;4.10;3.90;;;;;;;8.31;84.14;99321.31;5116360;28;20531;-72
2022/11/18 01:53:23;;;;;;;3.43;3.27;;;;;;;8.30;83.84;99327.59;5116204;28;20283;-71
2022/11/18 01:55:53;;;;;;;3.20;2.93;;;;;;;8.26;84.43;99321.69;5116102;28;20280;-71
2022/11/18 01:58:26;;;;;;;3.43;3.43;;;;;;;8.22;84.56;99322.94;5115506;28;20272;-71
2022/11/18 02:00:53;;;;;;;3.57;3.57;;;;;;;8.21;84.68;99325.72;5115781;28;20738;-71
2022/11/18 02:03:20;;;;;;;4.40;4.20;;;;;;;8.22;84.53;99330.09;5115403;28;20227;-71
2022/11/18 02:05:51;;;;;;;4.03;3.83;;;;;;;8.22;84.33;99330.94;5115645;28;20197;-71
2022/11/18 02:08:18;;;;;;;4.83;4.47;;;;;;;8.22;84.65;99333.59;5115629;28;20264;-71
2022/11/18 02:10:45;;;;;;;4.27;3.97;;;;;;;8.26;84.03;99336.84;5115287;28;20192;-71
2022/11/18 02:13:12;;;;;;;4.30;4.10;;;;;;;8.22;84.25;99340.75;5115137;28;20632;-71
2022/11/18 02:16:02;;;;;;;3.70;3.60;;;;;;;8.21;84.63;99344.38;5115597;28;20295;-71
2022/11/18 02:18:45;;;;;;;4.73;4.43;;;;;;;8.20;84.21;99348.03;5115453;28;20166;-71
2022/11/18 02:21:59;;;;;;;4.00;3.90;;;;;;;8.18;84.63;99352.66;5115149;28;20196;-71
2022/11/18 02:24:39;;;;;;;4.00;3.80;;;;;;;8.12;84.75;99353.16;5114915;28;20219;-71
2022/11/18 02:27:42;;;;;;;4.50;4.20;;;;;;;8.13;84.56;99358.38;5115535;28;20180;-72
2022/11/18 02:30:11;;;;;;;3.80;3.70;;;;;;;8.13;84.78;99357.53;5114959;28;20256;-72
2022/11/18 02:32:42;;;;;;;4.40;4.20;;;;;;;8.13;84.36;99354.88;5114796;28;20544;-71
2022/11/18 02:35:15;;;;;;;4.60;4.50;;;;;;;8.12;85.15;99350.50;5115111;28;20177;-71
2022/11/18 02:37:53;;;;;;;3.93;3.77;;;;;;;8.10;84.93;99356.81;5115282;28;20281;-71
2022/11/18 02:40:52;;;;;;;6.10;3.97;;;;;;;8.08;84.79;99353.41;5114760;28;20255;-71
2022/11/18 02:43:25;;;;;;;4.47;4.17;;;;;;;8.05;85.27;99360.84;5096012;28;20220;-71
2022/11/18 02:45:58;;;;;;;4.50;4.17;;;;;;;8.08;84.78;99361.41;5114934;28;20179;-71
2022/11/18 02:48:28;;;;;;;4.00;3.80;;;;;;;8.02;85.07;99361.06;5114578;28;20256;-71
2022/11/18 02:50:57;;;;;;;9.53;3.80;;;;;;;7.98;84.89;99367.66;5114798;28;20181;-71
2022/11/18 02:53:26;;;;;;;6.30;5.70;;;;;;;7.98;84.73;99367.66;5114605;28;20205;-71
2022/11/18 02:55:54;;;;;;;6.43;5.00;;;;;;;8.01;84.82;99368.25;5114574;28;20296;-71
2022/11/18 02:58:22;;;;;;;5.50;5.03;;;;;;;8.05;85.37;99369.69;5114385;28;20546;-71
2022/11/18 03:00:58;;;;;;;5.47;4.63;;;;;;;8.05;85.58;99377.69;5113513;28;20529;-71
2022/11/18 03:03:35;;;;;;;4.93;4.57;;;;;;;8.08;85.33;99373.91;5114204;28;20709;-71
2022/11/18 03:06:20;;;;;;;4.53;4.23;;;;;;;8.06;85.73;99373.19;5114552;28;20252;-71
2022/11/18 03:09:15;;;;;;;3.50;3.40;;;;;;;8.14;86.10;99385.88;5114283;28;20261;-71
2022/11/18 03:11:47;;;;;;;4.00;3.90;;;;;;;8.24;85.70;99386.81;5114432;28;20173;-71
2022/11/18 03:14:30;;;;;;;5.30;4.40;;;;;;;8.26;85.45;99387.50;5114019;28;20296;-72
2022/11/18 03:17:00;;;;;;;4.17;3.97;;;;;;;8.26;85.45;99392.84;5114010;28;20547;-72
2022/11/18 03:19:39;;;;;;;3.63;3.53;;;;;;;8.23;85.50;99398.44;5114314;28;20543;-72
2022/11/18 03:22:31;;;;;;;6.73;4.57;;;;;;;8.22;85.60;99394.09;5113792;28;20572;-72
2022/11/18 03:25:09;;;;;;;4.23;3.97;;;;;;;8.23;85.79;99401.94;5069281;28;20209;-71
2022/11/18 03:27:59;;;;;;;3.97;3.87;;;;;;;8.26;85.90;99404.38;5114475;28;20176;-71
2022/11/18 03:30:29;;;;;;;5.90;4.30;;;;;;;8.23;86.26;99401.94;5114226;28;20177;-71
2022/11/18 03:33:01;;;;;;;3.80;3.80;;;;;;;8.23;86.05;99395.78;5114070;28;20211;-71
2022/11/18 03:35:31;;;;;;;4.90;4.47;;;;;;;8.27;86.19;99406.06;5114125;28;20612;-71
2022/11/18 03:38:10;;;;;;;4.40;4.10;;;;;;;8.30;85.65;99399.63;5114029;28;20197;-71
2022/11/18 03:40:39;;;;;;;3.93;3.73;;;;;;;8.25;85.93;99416.00;5114073;28;20177;-71
2022/11/18 03:43:12;;;;;;;9.97;8.37;;;;;;;8.25;85.86;99416.00;5113931;28;20209;-71
2022/11/18 03:45:51;;;;;;;5.23;5.03;;;;;;;8.28;86.28;99422.91;5113758;28;20169;-71
2022/11/18 03:48:24;;;;;;;4.73;4.43;;;;;;;8.29;86.33;99419.28;5113968;28;20631;-71
2022/11/18 03:50:56;;;;;;;4.20;4.00;;;;;;;8.29;86.21;99421.94;5113992;28;20180;-71
2022/11/18 03:53:26;;;;;;;3.73;3.43;;;;;;;8.28;86.41;99426.44;5113710;28;20213;-71
2022/11/18 03:56:01;;;;;;;5.13;4.83;;;;;;;8.32;86.11;99435.03;5113847;28;20182;-71
2022/11/18 03:58:52;;;;;;;3.60;3.50;;;;;;;8.31;86.37;99433.34;5113883;28;20173;-71
2022/11/18 04:01:46;;;;;;;4.53;4.13;;;;;;;8.34;86.36;99430.41;5113579;28;20642;-71
2022/11/18 04:04:13;;;;;;;4.00;3.63;;;;;;;8.36;86.04;99427.63;5113330;28;20205;-71
2022/11/18 04:07:14;;;;;;;3.67;3.47;;;;;;;8.35;86.66;99436.59;5114059;28;20177;-71
2022/11/18 04:09:46;;;;;;;3.40;3.30;;;;;;;8.35;86.50;99436.59;5084997;28;20208;-71
2022/11/18 04:12:16;;;;;;;3.40;3.30;;;;;;;8.36;86.28;99440.97;5115566;28;20733;-71
2022/11/18 04:14:46;;;;;;;3.50;3.30;;;;;;;8.31;86.62;99442.19;5117547;28;20199;-71
2022/11/18 04:17:16;;;;;;;4.00;3.77;;;;;;;8.32;86.90;99451.03;5117680;28;20240;-71
2022/11/18 04:19:42;;;;;;;4.73;4.33;;;;;;;8.31;86.53;99449.34;5117412;28;20188;-72
2022/11/18 04:22:09;;;;;;;4.77;4.40;;;;;;;8.34;86.97;99456.25;5118024;28;20189;-71
2022/11/18 04:24:36;;;;;;;4.53;4.23;;;;;;;8.33;86.86;99458.03;5117669;28;20200;-72
2022/11/18 04:27:04;;;;;;;4.57;4.47;;;;;;;8.30;87.01;99459.16;5117350;28;20571;-72
2022/11/18 04:29:31;;;;;;;3.53;3.53;;;;;;;8.34;86.53;99458.91;5117275;28;20260;-72
2022/11/18 04:31:59;;;;;;;4.17;3.87;;;;;;;8.34;86.55;99458.91;5117268;28;20613;-72
2022/11/18 04:34:25;;;;;;;3.87;3.77;;;;;;;8.31;86.54;99460.84;5117055;28;20708;-73
2022/11/18 04:36:52;;;;;;;5.00;4.43;;;;;;;8.30;86.67;99463.63;5117322;28;20696;-72
2022/11/18 04:39:19;;;;;;;3.60;3.50;;;;;;;8.30;86.69;99479.66;5117078;28;20264;-72
2022/11/18 04:41:54;;;;;;;4.90;4.80;;;;;;;8.27;87.03;99469.25;5117230;28;20597;-72
2022/11/18 04:44:22;;;;;;;4.40;4.30;;;;;;;8.27;87.08;99470.06;5116969;28;20212;-71
2022/11/18 04:46:49;;;;;;;4.63;4.23;;;;;;;8.27;87.31;99478.06;5116906;28;20178;-71
2022/11/18 04:49:15;;;;;;;3.73;3.73;;;;;;;8.26;87.17;99472.84;5117456;28;20675;-71
2022/11/18 04:51:43;;;;;;;5.00;4.53;;;;;;;8.30;87.31;99479.66;5116949;28;20242;-72
2022/11/18 04:54:10;;;;;;;5.93;5.63;;;;;;;8.28;87.01;99477.13;5116727;28;20197;-71
2022/11/18 04:56:37;;;;;;;6.10;5.17;;;;;;;8.28;87.01;99474.47;5116715;28;20213;-71
2022/11/18 04:59:05;;;;;;;4.63;4.53;;;;;;;8.29;86.96;99480.63;5116683;28;20212;-71
2022/11/18 05:01:31;;;;;;;5.40;4.90;;;;;;;8.21;87.27;99478.59;5116677;28;20185;-71
2022/11/18 05:04:02;;;;;;;4.43;4.23;;;;;;;8.18;87.50;99484.16;5116569;28;20280;-72
2022/11/18 05:06:30;;;;;;;5.17;4.90;;;;;;;8.21;87.55;99488.41;5117151;28;20171;-72
2022/11/18 05:08:57;;;;;;;4.60;4.37;;;;;;;8.22;86.75;99484.78;5116996;28;20185;-72
2022/11/18 05:14:09;;;;;;;5.27;5.07;;;;;;;8.19;86.91;99493.00;5116365;28;20211;-72
2022/11/18 05:16:36;;;;;;;5.63;5.23;;;;;;;8.21;87.56;99504.41;5116551;28;20209;-72
2022/11/18 05:19:05;;;;;;;5.70;5.33;;;;;;;8.22;87.00;99503.44;5116613;28;20405;-72
2022/11/18 05:21:32;;;;;;;4.83;4.63;;;;;;;8.23;87.07;99511.31;5116217;28;20268;-72
2022/11/18 05:23:59;;;;;;;5.37;4.80;;;;;;;8.23;87.71;99511.31;5115110;28;20577;-72
2022/11/18 05:26:26;;;;;;;9.23;5.10;;;;;;;8.26;87.75;99512.88;5116442;28;20185;-72
2022/11/18 05:28:53;;;;;;;6.10;5.70;;;;;;;8.26;87.64;99511.06;5116117;28;20207;-72
2022/11/18 05:31:20;;;;;;;6.43;6.07;;;;;;;8.26;87.70;99516.41;5116091;28;20184;-72
2022/11/18 05:33:46;;;;;;;5.40;4.90;;;;;;;8.29;87.67;99526.81;5115924;28;20215;-72
2022/11/18 05:36:16;;;;;;;6.57;5.97;;;;;;;8.29;87.44;99526.81;5116151;28;20840;-72
2022/11/18 05:38:43;;;;;;;5.97;5.67;;;;;;;8.31;87.80;99527.53;5115898;28;20185;-72
2022/11/18 05:43:09;;;;;;;6.07;5.43;;;;;;;8.34;87.89;99531.78;5116166;28;20528;-72
2022/11/18 05:43:57;;;;;;;5.47;5.23;;;;;;;8.33;87.54;99535.41;5116091;28;20275;-71
2022/11/18 05:46:24;;;;;;;4.77;4.60;;;;;;;8.35;87.82;99533.47;5116054;28;20185;-72
2022/11/18 05:48:50;;;;;;;5.13;5.03;;;;;;;8.35;87.86;99532.63;5115752;28;20544;-72
2022/11/18 05:51:16;;;;;;;5.80;5.17;;;;;;;8.35;87.38;99538.78;5115955;28;20181;-73
2022/11/18 05:53:43;;;;;;;6.40;4.87;;;;;;;8.25;87.85;99544.03;5115546;28;20209;-72
2022/11/18 05:56:15;;;;;;;4.30;4.10;;;;;;;8.29;87.98;99550.81;5115902;28;20549;-72
2022/11/18 05:58:41;;;;;;;5.37;4.87;;;;;;;8.29;87.69;99541.97;5115785;28;20703;-72
2022/11/18 06:01:09;;;;;;;4.40;4.23;;;;;;;8.31;87.47;99548.03;5115761;28;20252;-71
2022/11/18 06:03:38;;;;;;;5.43;5.20;;;;;;;8.35;87.94;99549.47;5115313;28;20299;-71
2022/11/18 06:06:07;;;;;;;5.00;4.70;;;;;;;8.37;87.62;99547.53;5115362;28;20181;-71
2022/11/18 06:08:38;;;;;;;4.57;4.47;;;;;;;8.38;87.68;99556.38;5115800;28;20219;-71
2022/11/18 06:11:06;;;;;;;5.30;4.83;;;;;;;8.38;87.54;99551.03;5115580;28;20197;-71
2022/11/18 06:13:49;;;;;;;4.80;4.60;;;;;;;8.38;87.57;99556.38;5115197;28;20213;-71
2022/11/18 06:16:19;;;;;;;5.90;4.70;;;;;;;8.40;87.94;99567.78;5115773;28;20604;-71
2022/11/18 06:18:46;;;;;;;4.67;4.40;;;;;;;8.42;87.62;99568.53;5115469;28;20170;-71
2022/11/18 06:21:12;;;;;;;5.73;5.33;;;;;;;8.47;87.98;99569.00;5114921;28;20207;-71
2022/11/18 06:23:40;;;;;;;7.17;6.53;;;;;;;8.45;87.82;99574.47;5114914;28;20201;-71
2022/11/18 06:26:08;;;;;;;4.60;4.43;;;;;;;8.46;87.91;99592.16;5114926;28;20208;-71
2022/11/18 06:28:35;;;;;;;3.93;3.83;;;;;;;8.42;87.74;99585.38;5115463;28;20242;-72
2022/11/18 06:31:01;;;;;;;4.63;4.27;;;;;;;8.43;87.48;99588.91;5114949;28;20272;-72
2022/11/18 06:33:28;;;;;;;5.10;4.73;;;;;;;8.43;87.48;99595.09;5114684;28;20205;-71
2022/11/18 06:35:54;;;;;;;5.67;5.30;;;;;;;8.44;87.61;99596.78;5114661;28;20181;-71
2022/11/18 06:38:23;;;;;;;4.87;4.47;;;;;;;8.45;87.99;99600.28;5114535;28;20215;-71
2022/11/18 06:40:50;;;;;;;5.33;5.03;;;;;;;8.50;87.46;99601.63;5114933;28;20264;-71
2022/11/18 06:48:48;;;;;;;5.87;5.57;;;;;;;8.53;87.48;99616.53;5115101;28;20188;-71
2022/11/18 06:51:15;;;;;;;5.17;4.93;;;;;;;8.59;87.98;99623.19;5114479;28;20268;-71
2022/11/18 06:53:41;;;;;;;5.47;5.37;;;;;;;8.59;87.35;99625.84;5114256;28;20205;-71
2022/11/18 06:56:11;;;;;;;6.80;5.93;;;;;;;8.60;87.82;99627.56;5114807;28;20268;-71
2022/11/18 06:58:38;;;;;;;12.40;6.03;;;;;;;8.58;87.92;99624.16;5114246;28;20638;-71
2022/11/18 07:01:10;;;;;;;6.27;5.90;;;;;;;8.61;87.75;99635.44;5114327;28;20277;-71
2022/11/18 07:03:38;;;;;;;5.43;5.30;;;;;;;8.64;88.00;99640.53;5114225;28;20593;-71
2022/11/18 07:06:05;;;;;;;6.67;6.07;;;;;;;8.63;87.28;99644.16;5114529;28;20538;-72
2022/11/18 07:08:34;;;;;;;6.03;5.83;;;;;;;8.63;87.55;99646.00;5114458;28;20539;-73
2022/11/18 07:11:01;;;;;;;6.03;5.43;;;;;;;8.66;87.60;99653.75;5096186;28;20580;-73
2022/11/18 07:13:27;;;;;;;6.23;5.93;;;;;;;8.66;87.65;99654.56;5114336;28;20201;-72
2022/11/18 07:15:54;;;;;;;7.10;6.63;;;;;;;8.66;87.50;99662.59;5114049;28;20189;-72
2022/11/18 07:18:20;;;;;;;7.83;7.23;;;;;;;8.68;87.79;99662.47;5114274;28;20573;-72
2022/11/18 07:20:47;;;;;;;7.70;6.50;;;;;;;8.69;87.58;99666.81;5095702;28;20211;-72
2022/11/18 07:23:13;;;;;;;9.83;6.73;;;;;;;8.70;87.78;99666.72;5114144;28;20390;-72
2022/11/18 07:25:40;;;;;;;7.77;6.57;;;;;;;8.65;87.40;99671.59;5113888;28;20203;-72
2022/11/18 07:28:10;;;;;;;6.37;5.80;;;;;;;8.73;86.97;99674.47;5114448;28;20174;-72
2022/11/18 07:30:37;;;;;;;6.53;6.03;;;;;;;8.76;87.32;99677.84;5114386;28;20639;-73
2022/11/18 07:33:03;;;;;;;5.37;4.97;;;;;;;8.80;87.05;99679.31;5113757;28;20287;-72
2022/11/18 07:35:29;;;;;;;5.17;4.97;;;;;;;8.81;87.02;99684.53;5113791;28;20191;-72
2022/11/18 07:37:56;;;;;;;6.03;5.70;;;;;;;8.85;87.34;99691.31;5114253;28;20208;-72
2022/11/18 07:40:22;;;;;;;9.93;5.83;;;;;;;8.86;86.96;99692.16;5113735;28;20272;-72
2022/11/18 07:42:48;;;;;;;5.00;4.63;;;;;;;8.87;86.67;99702.72;5113689;28;20306;-71
2022/11/18 07:45:22;;;;;;;5.17;4.23;;;;;;;8.87;86.62;99710.72;5095535;28;20189;-72
2022/11/18 07:47:48;;;;;;;4.87;4.43;;;;;;;8.89;86.73;99708.78;5113078;28;20181;-72
2022/11/18 07:50:16;;;;;;;5.33;4.47;;;;;;;8.90;86.55;99707.78;5113928;28;20191;-72
2022/11/18 07:52:43;;;;;;;4.83;4.47;;;;;;;8.94;86.42;99719.09;5113585;28;20235;-71
2022/11/18 07:55:09;;;;;;;5.03;4.57;;;;;;;8.91;86.84;99714.84;5113565;28;20181;-71
2022/11/18 07:57:36;;;;;;;4.50;4.17;;;;;;;8.96;86.63;99717.16;5113493;28;20213;-71
2022/11/18 08:00:03;;;;;;;4.43;4.23;;;;;;;9.00;86.21;99723.91;5113578;28;20553;-72
2022/11/18 08:02:37;;;;;;;5.07;4.57;;;;;;;8.99;85.89;99724.06;5113487;28;20209;-71
2022/11/18 08:05:04;;;;;;;4.77;4.47;;;;;;;9.04;86.08;99733.38;5113606;28;20695;-72
2022/11/18 08:07:30;;;;;;;4.13;4.00;;;;;;;9.04;85.87;99738.72;5113520;28;20189;-72
2022/11/18 08:09:57;;;;;;;4.80;4.47;;;;;;;9.07;85.95;99743.81;5113443;28;20189;-72
2022/11/18 08:12:23;;;;;;;9.87;5.73;;;;;;;9.09;83.77;99739.19;5113294;28;20690;-71
2022/11/18 08:14:49;;;;;;;12.43;6.53;;;;;;;9.06;83.73;99743.94;5113668;28;20268;-71
2022/11/18 08:17:16;;;;;;;10.70;6.67;;;;;;;9.07;83.57;99743.81;5113847;28;20211;-71
2022/11/18 08:19:42;;;;;;;9.50;6.10;;;;;;;9.03;83.77;99747.72;5113390;28;20185;-71
2022/11/18 08:22:09;;;;;;;8.77;8.10;;;;;;;9.06;83.24;99755.47;5113258;28;20189;-71
2022/11/18 08:24:35;;;;;;;7.60;6.63;;;;;;;9.06;83.45;99751.97;5113614;28;20525;-71
2022/11/18 08:27:01;;;;;;;14.00;7.00;;;;;;;9.08;83.26;99750.03;5113844;28;20193;-71
2022/11/18 08:29:28;;;;;;;7.23;6.47;;;;;;;9.10;83.58;99756.09;5113248;28;20655;-71
2022/11/18 08:31:55;;;;;;;9.23;6.63;;;;;;;9.13;83.77;99751.34;5113484;28;20268;-71
2022/11/18 08:34:21;;;;;;;8.70;6.33;;;;;;;9.16;83.72;99758.25;5113120;28;20212;-72
2022/11/18 08:36:47;;;;;;;12.87;7.33;;;;;;;9.11;83.57;99763.97;5113493;28;20181;-72
2022/11/18 08:39:14;;;;;;;7.83;6.70;;;;;;;9.07;84.09;99764.34;5113145;28;20209;-72
2022/11/18 08:41:42;;;;;;;12.17;6.73;;;;;;;9.08;84.10;99766.88;5113415;28;20185;-72
2022/11/18 08:44:11;;;;;;;9.63;6.97;;;;;;;9.11;84.21;99765.78;5113276;28;20197;-72
2022/11/18 08:46:38;;;;;;;6.70;6.00;;;;;;;9.13;84.74;99775.38;5113433;28;20185;-72
2022/11/18 08:49:04;;;;;;;6.73;6.07;;;;;;;9.19;84.46;99771.34;5113338;28;20182;-72
2022/11/18 08:51:30;;;;;;;6.77;6.27;;;;;;;9.29;84.67;99766.09;5113072;28;20689;-72
2022/11/18 08:53:57;;;;;;;6.60;6.13;;;;;;;9.37;84.60;99769.00;5113017;28;20201;-71
2022/11/18 08:56:24;;;;;;;6.33;6.13;;;;;;;9.49;84.22;99775.16;5113043;28;20189;-71
2022/11/18 08:58:51;;;;;;;7.63;7.13;;;;;;;9.47;84.20;99774.44;5114824;28;20291;-71
2022/11/18 09:01:17;;;;;;;6.43;6.07;;;;;;;9.48;83.74;99776.13;5116620;28;20188;-71
2022/11/18 09:03:44;;;;;;;6.07;5.43;;;;;;;9.50;83.66;99780.34;5116666;28;20223;-71
2022/11/18 09:06:19;;;;;;;4.97;4.77;;;;;;;9.51;83.66;99781.22;5116896;28;20216;-72
2022/11/18 09:08:46;;;;;;;5.47;5.17;;;;;;;9.56;83.50;99784.38;5116766;28;20678;-71
2022/11/18 09:11:15;;;;;;;6.43;5.87;;;;;;;9.51;82.77;99792.75;5117013;28;20185;-72
2022/11/18 09:13:41;;;;;;;7.37;6.73;;;;;;;9.56;82.03;99789.72;5116362;28;20284;-72
2022/11/18 09:16:30;;;;;;;9.77;6.07;;;;;;;9.61;82.19;99798.19;5116718;28;20184;-71
2022/11/18 09:18:57;;;;;;;6.70;6.17;;;;;;;9.52;81.69;99797.13;5116530;28;20213;-71
2022/11/18 09:21:38;;;;;;;6.20;5.80;;;;;;;9.55;81.83;99799.56;5116289;28;20240;-71
2022/11/18 09:24:07;;;;;;;6.53;5.73;;;;;;;9.56;82.46;99801.25;5116160;28;20216;-71
2022/11/18 09:26:34;;;;;;;6.13;5.57;;;;;;;9.61;81.93;99805.38;5116226;28;20272;-71
2022/11/18 09:29:00;;;;;;;6.30;5.93;;;;;;;9.62;81.76;99807.06;5116137;28;20184;-71
2022/11/18 09:31:26;;;;;;;6.23;5.80;;;;;;;9.66;81.87;99811.19;5116358;28;20185;-71
2022/11/18 09:33:53;;;;;;;6.83;6.20;;;;;;;9.66;81.39;99816.53;5115893;28;20204;-71
2022/11/18 09:36:22;;;;;;;9.13;7.67;;;;;;;9.56;80.01;99805.75;5116017;28;20193;-71
2022/11/18 09:38:49;;;;;;;6.87;6.37;;;;;;;9.56;80.43;99808.44;5116152;28;20205;-71
2022/11/18 09:41:35;;;;;;;6.87;6.37;;;;;;;9.55;80.34;99826.28;5116470;28;20260;-71
2022/11/18 09:44:34;;;;;;;11.87;7.10;;;;;;;9.51;80.58;99821.31;5116075;28;20292;-72
2022/11/18 09:47:03;;;;;;;13.67;7.53;;;;;;;9.46;79.92;99818.19;5116327;28;20199;-72
2022/11/18 09:49:36;;;;;;;11.00;7.53;;;;;;;9.47;79.72;99823.38;5115758;28;20264;-72
2022/11/18 09:52:09;;;;;;;7.73;7.23;;;;;;;9.50;79.53;99830.31;5116077;28;20187;-71
2022/11/18 09:54:37;;;;;;;9.43;8.63;;;;;;;9.57;79.66;99839.50;5116168;28;20177;-71
2022/11/18 09:57:24;;;;;;;7.03;6.63;;;;;;;9.55;80.58;99846.81;5115520;28;20185;-71
2022/11/18 09:59:51;;;;;;;7.03;6.50;;;;;;;9.59;79.53;99849.09;5116180;28;20213;-71
2022/11/18 10:02:26;;;;;;;9.60;6.97;;;;;;;9.62;79.38;99855.19;5116058;28;20184;-72
2022/11/18 10:04:55;;;;;;;8.57;7.83;;;;;;;9.62;79.52;99858.69;5115786;28;20268;-72
2022/11/18 10:07:37;;;;;;;9.33;7.60;;;;;;;9.61;79.50;99865.03;5115986;28;20184;-71
2022/11/18 10:10:13;;;;;;;8.63;7.30;;;;;;;9.69;79.56;99857.22;5115209;28;20181;-71
2022/11/18 10:12:51;;;;;;;7.47;6.63;;;;;;;9.71;79.92;99857.94;5116003;28;20209;-71
2022/11/18 10:15:36;;;;;;;6.57;5.97;;;;;;;9.81;79.71;99860.72;5115788;28;20277;-71
2022/11/18 10:18:26;;;;;;;10.00;7.17;;;;;;;9.76;78.91;99866.44;5115706;28;20203;-71
2022/11/18 10:21:44;;;;;;;10.50;7.37;;;;;;;9.71;78.26;99868.63;5115176;28;20200;-71
2022/11/18 10:24:22;;;;;;;11.20;7.07;;;;;;;9.79;78.77;99870.69;5114950;28;20209;-71
2022/11/18 10:26:55;;;;;;;7.20;6.80;;;;;;;9.80;79.08;99873.22;5115057;28;20180;-71
2022/11/18 10:29:22;;;;;;;9.97;7.17;;;;;;;9.86;78.70;99869.19;5115039;28;20261;-71
2022/11/18 10:32:04;;;;;;;8.50;7.53;;;;;;;9.88;78.12;99867.25;5114949;28;20216;-71
2022/11/18 10:34:33;;;;;;;11.53;7.53;;;;;;;9.96;77.99;99870.16;5115196;28;20613;-71
2022/11/18 10:37:06;;;;;;;10.90;6.73;;;;;;;10.07;78.40;99876.41;5114713;28;20682;-71
2022/11/18 10:39:46;;;;;;;9.47;7.90;;;;;;;10.18;78.40;99879.06;5115269;28;20272;-71
2022/11/18 10:42:24;;;;;;;8.60;7.97;;;;;;;10.30;78.09;99872.69;5115241;28;20174;-71
2022/11/18 10:44:50;;;;;;;15.60;8.73;;;;;;;10.41;76.62;99869.09;5114638;28;20177;-71
2022/11/18 10:47:31;;;;;;;9.30;8.37;;;;;;;10.52;77.34;99870.88;5114602;28;20193;-71
2022/11/18 10:50:00;;;;;;;14.37;8.47;;;;;;;10.63;77.14;99873.47;5114780;28;20177;-71
2022/11/18 10:52:28;;;;;;;8.53;6.27;;;;;;;10.73;75.88;99868.19;5114762;28;20852;-71
2022/11/18 10:55:28;;;;;;;20.50;7.20;;;;;;;10.82;75.78;99870.91;5114432;28;20185;-71
2022/11/18 10:57:59;;;;;;;16.53;6.87;;;;;;;10.84;74.80;99866.25;5059351;28;20315;-71
2022/11/18 11:00:40;;;;;;;13.93;6.83;;;;;;;10.77;74.55;99875.78;5114368;28;20178;-72
2022/11/18 11:03:27;;;;;;;8.07;6.40;;;;;;;10.92;74.58;99875.44;5097124;28;20549;-72
2022/11/18 11:06:25;;;;;;;6.97;6.53;;;;;;;10.93;74.14;99874.47;5114295;28;20169;-72
2022/11/18 11:08:55;;;;;;;7.57;6.90;;;;;;;11.03;73.59;99878.88;5114187;28;20639;-72
2022/11/18 11:11:31;;;;;;;6.93;6.43;;;;;;;11.10;74.96;99873.84;5114736;28;20188;-72
2022/11/18 11:14:26;;;;;;;7.23;6.70;;;;;;;11.13;73.36;99876.25;5114018;28;20204;-72
2022/11/18 11:17:05;;;;;;;9.50;6.50;;;;;;;11.16;73.53;99878.69;5100262;28;20210;-74
2022/11/18 11:19:39;;;;;;;8.33;7.47;;;;;;;11.10;74.01;99879.22;5114049;28;20197;-73
2022/11/18 11:22:10;;;;;;;8.40;7.60;;;;;;;11.09;73.80;99869.47;5113287;28;20280;-72
2022/11/18 11:24:37;;;;;;;9.23;7.40;;;;;;;11.08;73.62;99878.50;5114203;28;20260;-72
2022/11/18 11:27:27;;;;;;;8.30;7.53;;;;;;;11.03;74.17;99878.88;5114536;28;20177;-72
2022/11/18 11:30:17;;;;;;;8.43;7.73;;;;;;;10.89;73.96;99881.09;5113724;28;20652;-72
2022/11/18 11:33:02;;;;;;;14.07;7.33;;;;;;;10.86;74.48;99876.84;5114075;28;20205;-72
2022/11/18 11:35:37;;;;;;;19.47;9.37;;;;;;;10.83;74.41;99880.63;5114394;28;20166;-72
2022/11/18 11:38:16;;;;;;;9.10;8.30;;;;;;;10.85;73.98;99883.19;5113996;28;20189;-72
2022/11/18 11:40:55;;;;;;;8.50;7.93;;;;;;;10.79;74.47;99881.03;5114059;28;20173;-72
2022/11/18 11:43:31;;;;;;;9.30;8.50;;;;;;;10.69;74.70;99893.53;5114048;28;20209;-72
2022/11/18 11:46:14;;;;;;;9.70;8.83;;;;;;;10.77;74.38;99883.84;5096055;28;20187;-72
2022/11/18 11:48:49;;;;;;;11.17;10.20;;;;;;;10.86;73.63;99885.72;5114287;28;20197;-72
2022/11/18 11:51:27;;;;;;;16.60;8.80;;;;;;;11.06;73.56;99881.31;5114229;28;20177;-72
2022/11/18 11:54:22;;;;;;;9.30;8.67;;;;;;;11.27;71.28;99889.28;5113753;28;20291;-72
2022/11/18 11:57:02;;;;;;;8.47;7.83;;;;;;;11.52;71.07;99886.25;5113866;28;20177;-72
2022/11/18 11:59:47;;;;;;;9.97;7.80;;;;;;;11.71;70.25;99900.56;5113478;28;20197;-72
2022/11/18 12:02:26;;;;;;;11.33;7.53;;;;;;;11.90;70.53;99888.22;5113849;28;20170;-72
2022/11/18 12:05:15;;;;;;;9.50;8.47;;;;;;;12.00;70.52;99893.59;5114091;28;20261;-72
2022/11/18 12:07:48;;;;;;;9.40;7.93;;;;;;;11.91;69.61;99889.91;5113748;28;20158;-72
2022/11/18 12:10:30;;;;;;;11.63;7.17;;;;;;;11.78;67.88;99895.50;5113436;28;20582;-73
2022/11/18 12:13:18;;;;;;;7.57;7.07;;;;;;;11.63;67.48;99897.72;5113595;28;20678;-73